Overview Statistics Trail Chart Weather Telemetry Raw packets
 

This is the latest recevied weather packets stored in our database for station/object W5ITZ. If no packets are shown the sender has not sent any weather packets the latest 10 day(s).

<< 3 4 5 6 7 8 9 >>
Time Temp. Humidity Pressure Rain* Wind** Luminosity Snow
1788200139 33.33° C 56% 1015.7 hPa 0 mm - 200 W/m² -
1788199839 33.89° C 55% 1015.7 hPa 0 mm - 206 W/m² -
1788199534 34.44° C 52% 1015.6 hPa 0 mm - 197 W/m² -
1788199229 34.44° C 51% 1015.8 hPa 0 mm - 228 W/m² -
1788198924 34.44° C 52% 1015.9 hPa 0 mm - 286 W/m² -
1788198621 35.56° C 50% 1016 hPa 0 mm - 262 W/m² -
1788198315 35° C 51% 1015.9 hPa 0 mm - 1101 W/m² -
1788198014 33.89° C 52% 1016.1 hPa 0 mm - 1084 W/m² -
1788197713 33.89° C 53% 1016 hPa 0 mm - 391 W/m² -
1788197409 35° C 50% 1016.1 hPa 0 mm - 1094 W/m² -
1788197104 35° C 51% 1015.9 hPa 0 mm - 225 W/m² -
1788196799 34.44° C 51% 1016.1 hPa 0 mm - 510 W/m² -
1788196495 35° C 51% 1016.1 hPa 0 mm - 925 W/m² -
1788196192 34.44° C 50% 1016.1 hPa 0 mm - 1017 W/m² -
1788195888 35° C 49% 1016.4 hPa 0 mm - 997 W/m² -
1788195579 35.56° C 47% 1016.1 hPa 0 mm - 1004 W/m² -
1788195274 35° C 51% 1016.1 hPa 0 mm - 966 W/m² -
1788194971 34.44° C 52% 1016.4 hPa 0 mm - 984 W/m² -
1788194666 34.44° C 51% 1016.3 hPa 0 mm - 994 W/m² -
1788194362 34.44° C 50% 1016.3 hPa 0 mm - 391 W/m² -
1788194057 35° C 51% 1016.3 hPa 0 mm - 766 W/m² -
1788193756 34.44° C 56% 1016.5 hPa 0 mm - 893 W/m² -
1788193451 35° C 54% 1016.2 hPa 0 mm - 885 W/m² -
1788193149 34.44° C 53% 1016.4 hPa 0 mm - 912 W/m² -
1788192847 34.44° C 52% 1016.2 hPa 0 mm - 883 W/m² -

* Rain latest hour (hover to see other rain measurements)
** Current wind speed in m/s (hover to see current wind gust speed)